createdAt,value
2018-09-24T00:01:29.473Z,85.70
2018-09-24T00:04:01.520Z,86.60
2018-09-24T00:06:33.452Z,85.10
2018-09-24T00:09:07.374Z,85.20
2018-09-24T00:11:39.284Z,85.50
2018-09-24T00:14:11.310Z,85.20
2018-09-24T00:16:43.415Z,84.70
2018-09-24T00:19:15.993Z,84.60
2018-09-24T00:21:47.761Z,83.60
2018-09-24T00:24:20.078Z,84.00
2018-09-24T00:26:52.312Z,83.80
2018-09-24T00:29:24.709Z,84.10
2018-09-24T00:31:56.828Z,84.40
2018-09-24T00:34:28.581Z,85.10
2018-09-24T00:37:01.132Z,84.40
2018-09-24T00:39:34.471Z,84.80
2018-09-24T00:42:06.899Z,84.90
2018-09-24T00:44:39.347Z,85.50
2018-09-24T00:47:11.933Z,85.30
2018-09-24T00:49:44.305Z,84.80
2018-09-24T00:52:16.334Z,85.20
2018-09-24T00:54:48.146Z,85.00
2018-09-24T00:57:20.129Z,85.00
2018-09-24T00:59:53.066Z,84.70
2018-09-24T01:02:25.090Z,85.00
2018-09-24T01:04:57.238Z,85.10
2018-09-24T01:07:29.574Z,85.70
2018-09-24T01:10:02.028Z,86.20
2018-09-24T01:12:33.759Z,86.40
2018-09-24T01:15:06.207Z,86.20
2018-09-24T01:17:38.506Z,85.40
2018-09-24T01:20:11.640Z,85.40
2018-09-24T01:22:43.769Z,85.80
2018-09-24T01:25:15.931Z,86.10
2018-09-24T01:27:48.006Z,86.00
2018-09-24T01:30:20.144Z,85.80
2018-09-24T01:32:51.913Z,86.30
2018-09-24T01:35:23.847Z,86.30
2018-09-24T01:37:56.043Z,86.60
2018-09-24T01:40:28.173Z,86.40
2018-09-24T01:43:01.246Z,86.40
2018-09-24T01:45:34.149Z,86.40
2018-09-24T01:48:06.194Z,86.10
2018-09-24T01:50:38.284Z,86.10
2018-09-24T01:53:10.550Z,86.30
2018-09-24T01:55:42.492Z,86.10
2018-09-24T01:58:14.541Z,86.00
2018-09-24T02:00:46.888Z,86.10
2018-09-24T02:03:19.018Z,86.30
2018-09-24T02:05:51.175Z,86.10
2018-09-24T02:08:23.074Z,86.00
2018-09-24T02:10:55.949Z,86.70
2018-09-24T02:13:28.834Z,87.10
2018-09-24T02:16:01.099Z,87.10
2018-09-24T02:18:32.923Z,86.60
2018-09-24T02:21:05.089Z,86.20
2018-09-24T02:23:37.333Z,86.60
2018-09-24T02:26:09.813Z,86.40
2018-09-24T02:28:42.436Z,87.80
2018-09-24T02:31:15.330Z,87.20
2018-09-24T02:33:47.069Z,87.00
2018-09-24T02:36:18.948Z,87.00
2018-09-24T02:38:51.176Z,86.40
2018-09-24T02:41:22.928Z,87.00
2018-09-24T02:43:54.865Z,87.50
2018-09-24T02:46:26.857Z,86.90
2018-09-24T02:49:04.787Z,90.00
2018-09-24T02:51:36.633Z,88.70
2018-09-24T02:54:08.694Z,88.20
2018-09-24T02:56:52.313Z,87.50
2018-09-24T02:59:24.188Z,89.10
2018-09-24T03:01:56.290Z,87.90
2018-09-24T03:04:28.231Z,87.00
2018-09-24T03:07:00.754Z,86.60
2018-09-24T03:09:35.381Z,86.90
2018-09-24T03:12:08.399Z,87.20
2018-09-24T03:14:40.262Z,86.60
2018-09-24T03:17:16.815Z,86.70
2018-09-24T03:19:49.189Z,86.40
2018-09-24T03:22:26.077Z,86.20
2018-09-24T03:24:58.402Z,85.70
2018-09-24T03:27:30.041Z,86.10
2018-09-24T03:30:02.511Z,86.50
2018-09-24T03:32:35.107Z,85.80
2018-09-24T03:35:07.344Z,85.50
2018-09-24T03:37:40.155Z,85.40
2018-09-24T03:40:12.237Z,85.50
2018-09-24T03:42:44.765Z,85.50
2018-09-24T03:45:17.187Z,84.90
2018-09-24T03:47:49.238Z,84.70
2018-09-24T03:50:21.383Z,85.30
2018-09-24T03:52:54.056Z,85.30
2018-09-24T03:55:26.072Z,84.70
2018-09-24T03:57:58.580Z,84.70
2018-09-24T04:00:30.589Z,85.10
2018-09-24T04:03:02.759Z,84.20
2018-09-24T04:05:39.660Z,84.40
2018-09-24T04:08:17.703Z,84.00
2018-09-24T04:10:55.295Z,84.40
2018-09-24T04:13:32.379Z,84.30
2018-09-24T04:16:09.616Z,83.40
2018-09-24T04:18:46.788Z,83.60
2018-09-24T04:21:23.866Z,83.80
2018-09-24T04:24:01.329Z,83.50
2018-09-24T04:26:38.324Z,84.10
2018-09-24T04:29:15.384Z,84.60
2018-09-24T04:31:52.328Z,84.50
2018-09-24T04:34:29.324Z,83.00
2018-09-24T04:37:06.329Z,82.80
2018-09-24T04:39:43.407Z,82.60
2018-09-24T04:42:20.708Z,81.80
2018-09-24T04:44:57.583Z,82.00
2018-09-24T04:47:34.452Z,82.20
2018-09-24T04:50:10.988Z,82.40
2018-09-24T04:52:48.030Z,82.30
2018-09-24T04:55:24.805Z,82.40
2018-09-24T04:58:01.770Z,82.40
2018-09-24T05:00:38.737Z,83.00
2018-09-24T05:03:16.296Z,83.00
2018-09-24T05:05:53.243Z,82.90
2018-09-24T05:08:30.024Z,82.90
2018-09-24T05:11:07.044Z,82.60
2018-09-24T05:13:44.473Z,82.50
2018-09-24T05:16:21.582Z,82.10
2018-09-24T05:18:58.758Z,81.60
2018-09-24T05:21:35.976Z,80.70
2018-09-24T05:24:12.982Z,80.80
2018-09-24T05:26:49.363Z,80.70
2018-09-24T05:29:26.306Z,80.20
2018-09-24T05:32:03.720Z,78.00
2018-09-24T05:34:40.977Z,77.10
2018-09-24T05:37:18.445Z,76.20
2018-09-24T05:39:57.411Z,74.90
2018-09-24T05:42:34.021Z,74.00
2018-09-24T05:45:11.287Z,73.00
2018-09-24T05:47:48.223Z,72.80
2018-09-24T05:50:25.717Z,73.50
2018-09-24T05:53:04.240Z,72.50
2018-09-24T05:55:42.473Z,72.80
2018-09-24T05:58:19.584Z,71.80
2018-09-24T06:00:56.156Z,71.00
2018-09-24T06:03:32.999Z,70.40
2018-09-24T06:06:10.216Z,69.50
2018-09-24T06:08:47.167Z,68.70
2018-09-24T06:11:24.285Z,69.10
2018-09-24T06:14:02.118Z,69.10
2018-09-24T06:16:38.916Z,68.00
2018-09-24T06:19:16.651Z,68.00
2018-09-24T06:21:53.646Z,67.30
2018-09-24T06:24:30.682Z,67.90
2018-09-24T06:27:07.755Z,66.90
2018-09-24T06:29:44.895Z,67.10
2018-09-24T06:32:21.568Z,66.10
2018-09-24T06:34:58.624Z,66.40
2018-09-24T06:37:35.784Z,65.10
2018-09-24T06:40:12.473Z,65.50
2018-09-24T06:42:49.643Z,63.80
2018-09-24T06:45:26.487Z,64.20
2018-09-24T06:48:03.396Z,64.30
2018-09-24T06:50:40.474Z,63.30
2018-09-24T06:53:17.437Z,62.80
2018-09-24T06:55:54.860Z,61.70
2018-09-24T06:58:31.753Z,61.10
2018-09-24T07:01:08.926Z,60.40
2018-09-24T07:03:46.845Z,59.70
2018-09-24T07:06:23.756Z,60.80
2018-09-24T07:09:01.007Z,60.70
2018-09-24T07:11:38.176Z,61.10
2018-09-24T07:14:16.166Z,60.20
2018-09-24T07:16:53.450Z,59.20
2018-09-24T07:19:30.985Z,58.00
2018-09-24T07:22:08.563Z,58.00
2018-09-24T07:24:45.753Z,58.20
2018-09-24T07:27:24.536Z,57.20
2018-09-24T07:30:01.958Z,56.70
2018-09-24T07:32:39.304Z,56.50
2018-09-24T07:35:17.086Z,56.50
2018-09-24T07:37:54.532Z,55.60
2018-09-24T07:40:32.890Z,55.50
2018-09-24T07:43:09.810Z,54.60
2018-09-24T07:45:48.541Z,54.50
2018-09-24T07:48:25.961Z,53.70
2018-09-24T07:51:02.642Z,53.20
2018-09-24T07:53:39.169Z,53.20
2018-09-24T07:56:16.188Z,52.70
2018-09-24T07:58:53.296Z,51.30
2018-09-24T08:01:30.441Z,51.60
2018-09-24T08:04:07.603Z,49.40
2018-09-24T08:06:45.226Z,48.40
2018-09-24T08:09:22.434Z,49.50
2018-09-24T08:11:59.851Z,49.50
2018-09-24T08:14:36.987Z,50.80
2018-09-24T08:17:14.019Z,49.70
2018-09-24T08:19:50.979Z,49.90
2018-09-24T08:22:27.877Z,46.60
2018-09-24T08:25:04.822Z,43.10
2018-09-24T08:27:42.495Z,43.70
2018-09-24T08:30:19.084Z,40.10
2018-09-24T08:32:56.022Z,40.10
2018-09-24T08:35:34.600Z,39.00
2018-09-24T08:38:12.008Z,40.40
2018-09-24T08:40:48.693Z,38.90
2018-09-24T08:43:25.625Z,38.70
2018-09-24T08:46:02.671Z,38.50
2018-09-24T08:48:39.207Z,38.60
2018-09-24T08:51:16.152Z,38.20
2018-09-24T08:53:53.649Z,38.80
2018-09-24T08:56:31.079Z,38.20
2018-09-24T08:59:08.092Z,38.40
2018-09-24T09:01:45.239Z,37.90
2018-09-24T09:04:22.224Z,38.20
2018-09-24T09:06:58.532Z,38.40
2018-09-24T09:09:35.672Z,38.30
2018-09-24T09:12:13.524Z,37.70
2018-09-24T09:14:50.470Z,36.80
2018-09-24T09:17:27.696Z,36.90
2018-09-24T09:20:04.976Z,37.50
2018-09-24T09:22:41.748Z,37.80
2018-09-24T09:25:18.409Z,37.10
2018-09-24T09:27:56.241Z,36.30
2018-09-24T09:30:33.637Z,36.80
2018-09-24T09:33:10.821Z,36.80
2018-09-24T09:35:49.283Z,37.10
2018-09-24T09:38:26.373Z,37.50
2018-09-24T09:41:03.827Z,36.70
2018-09-24T09:43:40.367Z,35.80
2018-09-24T09:46:18.498Z,35.80
2018-09-24T09:48:55.882Z,35.60
2018-09-24T09:51:33.720Z,35.70
2018-09-24T09:54:10.879Z,35.30
2018-09-24T09:56:48.033Z,35.60
2018-09-24T09:59:25.143Z,35.90
2018-09-24T10:02:02.373Z,34.60
2018-09-24T10:04:39.419Z,34.10
2018-09-24T10:07:16.720Z,35.00
2018-09-24T10:09:54.026Z,36.00
2018-09-24T10:12:31.586Z,34.60
2018-09-24T10:15:09.185Z,35.00
2018-09-24T10:17:46.442Z,35.00
2018-09-24T10:20:22.988Z,33.20
2018-09-24T10:22:59.925Z,33.60
2018-09-24T10:25:36.944Z,33.00
2018-09-24T10:28:14.177Z,32.80
2018-09-24T10:30:51.434Z,31.70
2018-09-24T10:33:29.330Z,31.30
2018-09-24T10:36:06.451Z,31.90
2018-09-24T10:38:43.023Z,31.90
2018-09-24T10:41:20.067Z,32.50
2018-09-24T10:43:57.104Z,31.40
2018-09-24T10:46:34.354Z,31.10
2018-09-24T10:49:11.653Z,32.20
2018-09-24T10:51:49.213Z,33.10
2018-09-24T10:54:26.636Z,32.90
2018-09-24T10:57:03.551Z,33.60
2018-09-24T10:59:40.807Z,32.90
2018-09-24T11:02:18.947Z,33.50
2018-09-24T11:04:56.758Z,33.80
2018-09-24T11:07:34.645Z,34.00
2018-09-24T11:10:12.588Z,33.00
2018-09-24T11:12:49.493Z,34.00
2018-09-24T11:15:26.179Z,34.40
2018-09-24T11:18:03.404Z,34.20
2018-09-24T11:20:40.888Z,35.10
2018-09-24T11:23:18.066Z,35.30
2018-09-24T11:25:55.978Z,35.90
2018-09-24T11:28:33.945Z,36.20
2018-09-24T11:31:12.078Z,36.30
2018-09-24T11:33:48.939Z,37.90
2018-09-24T11:36:26.205Z,38.80
2018-09-24T11:39:03.405Z,39.00
2018-09-24T11:41:40.931Z,40.80
2018-09-24T11:44:18.585Z,43.40
2018-09-24T11:46:56.345Z,45.50
2018-09-24T11:49:34.290Z,47.40
2018-09-24T11:52:10.917Z,48.50
2018-09-24T11:54:48.404Z,48.90
2018-09-24T11:57:25.563Z,49.10
2018-09-24T12:00:03.033Z,48.80
2018-09-24T12:02:40.488Z,48.90
2018-09-24T12:05:17.846Z,48.20
2018-09-24T12:07:55.180Z,47.90
2018-09-24T12:10:31.972Z,48.70
2018-09-24T12:13:09.481Z,48.40
2018-09-24T12:15:46.659Z,48.10
2018-09-24T12:18:24.257Z,48.30
2018-09-24T12:21:01.420Z,47.90
2018-09-24T12:23:38.354Z,48.60
2018-09-24T12:26:15.624Z,49.80
